Time;durP1;ratioP1;P1;durP2;ratioP2;P2;SDS_P1;SDS_P2;PMS_P1;PMS_P2;Temp;Humidity;BMP_temperature;BMP_pressure;BME280_temperature;BME280_humidity;BME280_pressure;Samples;Min_cycle;Max_cycle;Signal;HPM_P1;HPM_P2
2021/12/07 00:00:55;;;;;;;24.17;12.20;;;;;;;1.23;78.18;101459.56;5014627;28;20041;-54
2021/12/07 00:03:20;;;;;;;25.48;13.00;;;;;;;1.24;78.11;101457.75;5016946;28;20026;-55
2021/12/07 00:05:48;;;;;;;24.15;11.65;;;;;;;1.23;77.94;101445.56;5017575;28;20458;-55
2021/12/07 00:08:15;;;;;;;25.77;12.60;;;;;;;1.14;78.41;101445.59;5013080;28;20385;-53
2021/12/07 00:10:41;;;;;;;28.25;12.88;;;;;;;1.08;78.50;101440.16;5016348;28;20025;-55
2021/12/07 00:13:09;;;;;;;23.35;11.68;;;;;;;1.01;78.93;101440.00;5014529;28;20030;-55
2021/12/07 00:15:36;;;;;;;24.98;12.82;;;;;;;0.99;79.43;101438.53;5014128;28;20228;-55
2021/12/07 00:18:02;;;;;;;24.90;11.63;;;;;;;1.05;79.24;101429.94;5015719;28;20113;-55
2021/12/07 00:20:27;;;;;;;28.50;12.50;;;;;;;1.11;78.97;101434.56;5023021;28;20121;-55
2021/12/07 00:22:56;;;;;;;30.27;12.90;;;;;;;1.13;78.67;101436.03;5013090;28;20033;-54
2021/12/07 00:25:23;;;;;;;20.90;11.93;;;;;;;1.08;79.18;101434.91;5017928;28;20442;-55
2021/12/07 00:27:48;;;;;;;22.77;11.00;;;;;;;1.06;79.39;101421.00;5014192;28;20038;-55
2021/12/07 00:30:15;;;;;;;26.50;13.65;;;;;;;1.03;79.59;101430.09;5020880;28;20017;-55
2021/12/07 00:32:47;;;;;;;24.98;10.90;;;;;;;1.04;79.48;101418.56;5018117;28;20041;-55
2021/12/07 00:37:50;;;;;;;20.58;11.57;;;;;;;1.01;79.56;101415.44;5015753;28;20125;-55
2021/12/07 00:40:19;;;;;;;23.50;11.38;;;;;;;0.99;79.96;101418.25;5016279;28;20022;-55
2021/12/07 00:42:46;;;;;;;19.05;10.88;;;;;;;1.00;79.74;101409.31;5013272;28;20113;-56
2021/12/07 00:45:14;;;;;;;19.98;10.50;;;;;;;1.03;79.58;101405.53;5019317;28;20025;-55
2021/12/07 00:47:40;;;;;;;23.77;11.82;;;;;;;1.02;79.60;101404.69;5019945;28;20376;-55
2021/12/07 00:50:08;;;;;;;20.80;10.55;;;;;;;1.02;79.77;101409.16;5019890;28;20033;-55
2021/12/07 00:52:33;;;;;;;19.88;10.40;;;;;;;0.95;79.70;101406.38;5014535;28;20068;-55
2021/12/07 00:55:01;;;;;;;24.02;12.02;;;;;;;0.90;79.67;101408.72;5015833;28;20124;-56
2021/12/07 00:57:26;;;;;;;21.55;10.90;;;;;;;0.78;79.74;101395.03;5016537;28;20030;-55
2021/12/07 00:59:52;;;;;;;25.00;10.85;;;;;;;0.70;79.84;101392.41;5012210;28;20037;-55
2021/12/07 01:02:18;;;;;;;19.45;10.75;;;;;;;0.60;80.58;101389.97;5015828;28;20045;-55
2021/12/07 01:04:52;;;;;;;23.02;11.75;;;;;;;0.60;80.60;101386.50;5014973;28;20040;-55
2021/12/07 01:07:50;;;;;;;23.90;11.15;;;;;;;0.56;80.85;101385.19;5012520;28;20472;-55
2021/12/07 01:26:38;;;;;;;17.67;9.70;;;;;;;0.82;80.78;101380.53;5014623;28;20095;-54
2021/12/07 01:29:04;;;;;;;21.20;10.05;;;;;;;0.79;81.01;101383.50;5014129;28;20439;-55
2021/12/07 01:31:46;;;;;;;18.75;8.70;;;;;;;0.82;80.85;101383.16;5015762;28;20029;-54
2021/12/07 01:34:51;;;;;;;17.98;10.27;;;;;;;0.83;80.67;101382.16;5016202;28;20479;-55
2021/12/07 01:48:03;;;;;;;18.40;9.40;;;;;;;0.80;80.47;101355.31;5075573;28;20039;-53
2021/12/07 01:50:50;;;;;;;18.50;9.85;;;;;;;0.76;81.10;101351.38;5075243;28;20028;-54
2021/12/07 02:01:09;;;;;;;20.13;10.57;;;;;;;0.74;80.75;101348.91;5068701;28;20052;-51
2021/12/07 02:03:38;;;;;;;21.77;10.80;;;;;;;0.76;80.93;101349.56;5055631;28;20082;-52
2021/12/07 02:06:04;;;;;;;24.35;11.98;;;;;;;0.75;80.86;101342.63;5056906;28;20025;-52
2021/12/07 02:08:30;;;;;;;22.38;11.68;;;;;;;0.69;80.86;101348.56;5056744;28;20158;-52
2021/12/07 02:10:59;;;;;;;25.38;11.35;;;;;;;0.66;81.13;101346.25;5056160;28;20029;-53
2021/12/07 02:15:57;;;;;;;23.30;11.55;;;;;;;0.64;81.21;101329.78;5056753;28;20043;-53
2021/12/07 02:18:23;;;;;;;19.40;10.30;;;;;;;0.67;81.55;101326.81;5050001;28;20029;-52
2021/12/07 02:20:50;;;;;;;21.95;11.30;;;;;;;0.69;81.46;101321.38;5050422;28;20021;-52
2021/12/07 02:23:16;;;;;;;24.85;11.40;;;;;;;0.69;81.57;101322.19;5054198;28;20029;-53
2021/12/07 02:25:43;;;;;;;22.77;12.90;;;;;;;0.71;81.43;101319.38;5056446;28;20154;-55
2021/12/07 02:28:13;;;;;;;25.52;11.90;;;;;;;0.73;81.31;101317.41;5058162;28;20017;-52
2021/12/07 02:30:41;;;;;;;25.80;11.52;;;;;;;0.70;81.25;101323.81;5055714;28;20028;-54
2021/12/07 02:33:07;;;;;;;23.13;10.80;;;;;;;0.71;80.99;101322.00;5052020;28;20064;-54
2021/12/07 02:35:33;;;;;;;23.38;11.70;;;;;;;0.69;80.85;101324.81;5049981;28;20184;-52
2021/12/07 02:37:59;;;;;;;25.15;11.45;;;;;;;0.70;80.66;101321.19;5051811;28;20021;-52
2021/12/07 02:40:25;;;;;;;25.40;12.05;;;;;;;0.68;81.11;101314.44;5056667;28;20056;-54
2021/12/07 02:42:52;;;;;;;23.05;12.10;;;;;;;0.70;80.76;101315.09;5053810;28;20371;-52
2021/12/07 02:45:20;;;;;;;27.95;12.18;;;;;;;0.68;80.88;101310.00;5052524;28;20494;-54
2021/12/07 02:47:46;;;;;;;21.73;11.50;;;;;;;0.68;80.98;101310.00;5051475;28;20111;-52
2021/12/07 02:50:13;;;;;;;24.45;12.73;;;;;;;0.65;81.18;101310.34;5043899;28;20243;-54
2021/12/07 02:52:38;;;;;;;23.20;12.13;;;;;;;0.66;81.13;101304.06;5038144;28;20115;-54
2021/12/07 02:55:06;;;;;;;30.17;12.93;;;;;;;0.63;81.33;101311.50;5039349;28;20570;-53
2021/12/07 02:57:33;;;;;;;21.55;11.48;;;;;;;0.62;81.00;101310.69;5040228;28;20501;-54
2021/12/07 03:00:07;;;;;;;24.95;11.20;;;;;;;0.59;81.24;101311.03;5038624;28;20589;-52
2021/12/07 03:02:38;;;;;;;27.02;12.20;;;;;;;0.62;81.15;101315.13;5040715;28;20091;-53
2021/12/07 03:05:24;;;;;;;26.10;11.77;;;;;;;0.64;81.19;101313.16;5034568;28;20043;-54
2021/12/07 03:26:36;;;;;;;23.67;11.60;;;;;;;0.65;81.29;101304.25;5038348;28;20488;-52
2021/12/07 03:29:02;;;;;;;26.30;12.73;;;;;;;0.64;81.38;101306.06;5040286;28;20108;-53
2021/12/07 03:31:29;;;;;;;28.98;12.85;;;;;;;0.63;81.46;101303.59;5041066;28;20025;-52
2021/12/07 03:33:57;;;;;;;29.17;14.05;;;;;;;0.66;81.40;101304.06;5040622;28;20022;-51
2021/12/07 03:36:23;;;;;;;27.30;13.57;;;;;;;0.68;81.43;101298.63;5037317;28;20029;-53
2021/12/07 03:38:50;;;;;;;29.42;13.85;;;;;;;0.71;81.29;101307.00;5040150;28;20037;-53
2021/12/07 03:41:16;;;;;;;26.27;14.20;;;;;;;0.73;81.26;101312.16;5042165;28;20529;-52
2021/12/07 03:43:42;;;;;;;27.55;13.43;;;;;;;0.68;81.26;101307.34;5042941;28;20401;-52
2021/12/07 03:46:08;;;;;;;30.90;14.35;;;;;;;0.68;81.24;101312.63;5041086;28;20037;-52
2021/12/07 03:48:35;;;;;;;27.77;13.82;;;;;;;0.68;81.28;101320.53;5035999;28;20108;-52
2021/12/07 03:51:00;;;;;;;34.95;15.02;;;;;;;0.66;81.04;101319.91;5037806;28;20493;-54
2021/12/07 03:53:28;;;;;;;29.92;14.38;;;;;;;0.63;81.13;101320.25;5040847;28;20030;-51
2021/12/07 03:55:53;;;;;;;29.40;14.23;;;;;;;0.61;81.16;101311.69;5036206;28;20104;-54
2021/12/07 03:58:19;;;;;;;31.50;14.60;;;;;;;0.59;81.33;101322.41;5041238;28;20116;-52
2021/12/07 04:00:46;;;;;;;29.52;15.13;;;;;;;0.63;81.27;101327.31;5036250;28;20131;-52
2021/12/07 04:03:14;;;;;;;35.00;14.60;;;;;;;0.61;81.59;101332.78;5035691;28;20406;-52
2021/12/07 04:05:49;;;;;;;30.70;14.20;;;;;;;0.58;81.72;101330.47;5037273;28;20147;-53
2021/12/07 04:08:17;;;;;;;30.58;14.93;;;;;;;0.60;81.69;101333.75;5040048;28;20039;-53
2021/12/07 04:10:43;;;;;;;36.20;16.33;;;;;;;0.63;81.18;101322.06;5041382;28;20481;-52
2021/12/07 04:13:09;;;;;;;33.47;15.43;;;;;;;0.63;81.26;101322.88;5037236;28;20029;-54
2021/12/07 04:15:36;;;;;;;33.95;14.85;;;;;;;0.61;81.41;101319.59;5033209;28;20116;-53
2021/12/07 04:18:02;;;;;;;31.88;15.25;;;;;;;0.63;81.20;101328.16;5040340;28;20459;-52
2021/12/07 04:20:28;;;;;;;33.75;14.45;;;;;;;0.62;81.41;101323.88;5040207;28;20106;-53
2021/12/07 04:22:54;;;;;;;32.97;14.93;;;;;;;0.61;81.63;101327.50;5042582;28;20074;-53
2021/12/07 04:25:20;;;;;;;35.05;16.27;;;;;;;0.65;81.50;101331.44;5035955;28;20017;-53
2021/12/07 04:27:46;;;;;;;33.38;16.73;;;;;;;0.64;81.37;101335.06;5042545;28;20037;-53
2021/12/07 04:30:16;;;;;;;33.88;15.85;;;;;;;0.61;81.43;101338.03;5037952;28;20074;-54
2021/12/07 04:32:42;;;;;;;30.92;15.77;;;;;;;0.62;81.59;101328.31;5041077;28;20637;-52
2021/12/07 04:35:10;;;;;;;35.22;15.43;;;;;;;0.65;81.29;101341.16;5038609;28;20032;-54
2021/12/07 04:37:37;;;;;;;30.77;14.63;;;;;;;0.62;81.20;101334.41;5037458;28;20060;-52
2021/12/07 04:40:04;;;;;;;27.65;14.73;;;;;;;0.57;81.10;101328.84;5037943;28;20479;-52
2021/12/07 04:42:30;;;;;;;32.05;14.82;;;;;;;0.53;81.21;101330.97;5039507;28;20075;-54
2021/12/07 04:45:00;;;;;;;29.02;15.05;;;;;;;0.46;81.45;101331.81;5036582;28;20029;-52
2021/12/07 04:57:38;;;;;;;29.25;14.07;;;;;;;0.47;80.98;101338.72;5038819;28;20085;-52
2021/12/07 04:58:28;;;;;;;26.58;13.68;;;;;;;0.44;81.10;101339.06;5037110;28;20502;-52
2021/12/07 05:00:53;;;;;;;37.85;14.50;;;;;;;0.47;81.31;101341.38;5036272;28;20055;-52
2021/12/07 05:03:19;;;;;;;31.35;15.18;;;;;;;0.44;81.20;101339.88;5038905;28;20036;-51
2021/12/07 05:05:49;;;;;;;36.63;15.95;;;;;;;0.46;81.30;101352.91;5039515;28;20040;-52
2021/12/07 05:08:21;;;;;;;34.88;14.93;;;;;;;0.43;81.16;101348.78;5033690;28;20017;-52
2021/12/07 05:18:41;;;;;;;31.33;15.10;;;;;;;0.47;80.90;101342.19;5038529;28;20028;-51
2021/12/07 05:24:03;;;;;;;34.83;14.52;;;;;;;0.41;80.98;101336.78;5036888;28;20088;-53
2021/12/07 05:37:39;;;;;;;34.55;14.95;;;;;;;0.47;81.40;101330.81;5039154;28;20091;-51
2021/12/07 05:40:11;;;;;;;31.90;14.88;;;;;;;0.45;81.18;101345.97;5036793;28;20498;-53
2021/12/07 05:42:38;;;;;;;32.20;14.93;;;;;;;0.45;81.27;101354.72;5038580;28;20040;-51
2021/12/07 05:45:06;;;;;;;35.17;14.32;;;;;;;0.49;81.11;101358.66;5037975;28;20478;-53
2021/12/07 05:47:32;;;;;;;32.60;15.43;;;;;;;0.46;80.84;101371.34;5033128;28;20036;-54
2021/12/07 05:49:57;;;;;;;33.80;15.68;;;;;;;0.45;80.98;101372.34;5039651;28;20033;-53
2021/12/07 05:52:24;;;;;;;32.70;15.20;;;;;;;0.42;80.61;101372.69;5033002;28;20061;-54
2021/12/07 05:54:50;;;;;;;29.60;16.23;;;;;;;0.43;81.07;101375.16;5037206;28;20029;-51
2021/12/07 05:57:15;;;;;;;36.38;15.88;;;;;;;0.42;81.14;101381.41;5038399;28;20195;-54
2021/12/07 05:59:41;;;;;;;32.78;15.55;;;;;;;0.43;80.81;101379.59;5035595;28;20037;-55
2021/12/07 06:02:07;;;;;;;32.67;16.05;;;;;;;0.41;80.99;101387.69;5036007;28;20036;-54
2021/12/07 06:04:32;;;;;;;34.78;15.40;;;;;;;0.38;80.94;101385.38;5035538;28;20418;-51
2021/12/07 06:06:58;;;;;;;32.35;16.45;;;;;;;0.37;81.12;101380.28;5038810;28;20116;-53
2021/12/07 06:09:24;;;;;;;36.30;16.05;;;;;;;0.38;81.37;101387.19;5039723;28;20022;-53
2021/12/07 06:11:50;;;;;;;38.30;16.20;;;;;;;0.43;81.45;101384.88;5037198;28;20034;-53
2021/12/07 06:14:19;;;;;;;37.35;16.15;;;;;;;0.51;81.45;101377.75;5037708;28;20036;-53
2021/12/07 06:16:46;;;;;;;33.90;15.18;;;;;;;0.53;81.22;101381.06;5039473;28;20116;-52
2021/12/07 06:19:12;;;;;;;31.08;14.63;;;;;;;0.58;80.93;101383.22;5040117;28;20025;-51
2021/12/07 06:21:37;;;;;;;35.33;16.38;;;;;;;0.58;80.80;101388.50;5038673;28;20588;-51
2021/12/07 06:24:03;;;;;;;34.05;15.27;;;;;;;0.57;80.86;101392.13;5038118;28;20709;-52
2021/12/07 06:26:28;;;;;;;31.45;16.00;;;;;;;0.57;80.52;101386.84;5041591;28;20028;-52
2021/12/07 06:28:54;;;;;;;33.40;15.80;;;;;;;0.53;81.04;101396.06;5038182;28;20540;-54
2021/12/07 06:31:19;;;;;;;36.33;17.52;;;;;;;0.55;80.74;101391.47;5040109;28;20489;-54
2021/12/07 06:33:45;;;;;;;40.50;17.65;;;;;;;0.55;80.69;101388.81;5039438;28;20379;-55
2021/12/07 06:36:13;;;;;;;36.38;16.90;;;;;;;0.55;80.54;101397.56;5038392;28;20025;-52
2021/12/07 06:38:39;;;;;;;35.72;17.30;;;;;;;0.53;81.07;101394.25;5036482;28;20033;-54
2021/12/07 06:41:05;;;;;;;36.00;16.80;;;;;;;0.52;81.14;101389.13;5039280;28;20489;-53
2021/12/07 06:43:30;;;;;;;39.53;18.00;;;;;;;0.51;81.02;101392.75;5042274;28;20033;-52
2021/12/07 06:45:56;;;;;;;40.95;18.13;;;;;;;0.50;81.55;101391.13;5044373;28;20021;-52
2021/12/07 06:48:22;;;;;;;35.58;16.85;;;;;;;0.52;81.54;101405.78;5042562;28;20274;-53
2021/12/07 06:50:48;;;;;;;43.95;17.85;;;;;;;0.56;81.35;101399.22;5037747;28;20029;-54
2021/12/07 06:53:13;;;;;;;38.05;16.73;;;;;;;0.58;81.07;101393.75;5037300;28;20117;-54
2021/12/07 06:55:39;;;;;;;36.28;18.20;;;;;;;0.58;80.83;101391.13;5039741;28;20135;-54
2021/12/07 06:58:05;;;;;;;40.00;18.02;;;;;;;0.51;81.23;101405.94;5045043;28;20493;-54
2021/12/07 07:00:32;;;;;;;37.78;18.02;;;;;;;0.47;81.25;101409.91;5038898;28;20025;-54
2021/12/07 07:02:58;;;;;;;44.35;19.25;;;;;;;0.49;81.09;101410.56;5041372;28;20144;-54
2021/12/07 07:05:24;;;;;;;38.47;18.10;;;;;;;0.41;81.18;101415.84;5039703;28;20107;-54
2021/12/07 07:07:49;;;;;;;40.05;18.85;;;;;;;0.39;81.67;101413.38;5037739;28;20068;-53
2021/12/07 07:10:17;;;;;;;43.28;18.67;;;;;;;0.42;81.29;101415.69;5038019;28;20483;-52
2021/12/07 07:12:44;;;;;;;41.60;18.42;;;;;;;0.40;81.31;101416.84;5036595;28;20033;-53
2021/12/07 07:15:10;;;;;;;37.28;18.25;;;;;;;0.41;81.34;101415.84;5041446;28;20379;-52
2021/12/07 07:17:36;;;;;;;43.63;19.35;;;;;;;0.36;81.45;101404.97;5038532;28;20029;-52
2021/12/07 07:20:04;;;;;;;42.10;19.70;;;;;;;0.34;81.48;101420.13;5040564;28;20029;-52
2021/12/07 07:22:29;;;;;;;45.05;20.27;;;;;;;0.35;81.56;101414.69;5039646;28;20028;-53
2021/12/07 07:24:55;;;;;;;41.58;20.17;;;;;;;0.35;81.87;101425.22;5035466;28;20028;-52
2021/12/07 07:27:21;;;;;;;38.90;17.77;;;;;;;0.30;81.87;101427.53;5037391;28;20056;-52
2021/12/07 07:29:46;;;;;;;38.50;18.27;;;;;;;0.34;81.33;101425.38;5034836;28;20036;-52
2021/12/07 07:32:12;;;;;;;38.38;18.60;;;;;;;0.37;81.16;101422.44;5033818;28;20051;-53
2021/12/07 07:34:38;;;;;;;43.65;19.52;;;;;;;0.37;81.35;101430.38;5035944;28;20033;-51
2021/12/07 07:37:05;;;;;;;42.25;21.27;;;;;;;0.40;81.40;101432.66;5033462;28;20388;-52
2021/12/07 07:39:32;;;;;;;38.13;18.63;;;;;;;0.43;80.96;101438.44;5034252;28;20061;-51
2021/12/07 07:41:57;;;;;;;47.60;19.17;;;;;;;0.47;81.04;101436.28;5035109;28;20035;-51
2021/12/07 07:44:23;;;;;;;42.80;21.05;;;;;;;0.44;81.37;101433.97;5035090;28;20029;-52
2021/12/07 07:46:48;;;;;;;46.22;21.25;;;;;;;0.47;81.06;101436.28;5033666;28;20438;-51
2021/12/07 07:49:14;;;;;;;47.97;20.42;;;;;;;0.48;80.92;101437.91;5037233;28;20029;-52
2021/12/07 07:51:39;;;;;;;42.47;20.27;;;;;;;0.47;80.89;101439.72;5042408;28;20035;-52
2021/12/07 07:54:05;;;;;;;47.75;20.63;;;;;;;0.48;80.89;101445.84;5034896;28;20033;-52
2021/12/07 07:56:32;;;;;;;47.35;20.67;;;;;;;0.51;80.88;101441.03;5033895;28;20075;-51
2021/12/07 07:58:58;;;;;;;46.97;20.60;;;;;;;0.52;81.02;101450.59;5033552;28;20038;-51
2021/12/07 08:01:28;;;;;;;49.35;21.25;;;;;;;0.56;81.01;101453.75;5035809;28;20036;-52
2021/12/07 08:03:54;;;;;;;46.67;20.38;;;;;;;0.57;80.92;101450.94;5034887;28;20502;-55
2021/12/07 08:06:20;;;;;;;49.53;21.13;;;;;;;0.60;80.72;101453.25;5043058;28;20376;-51
2021/12/07 08:08:45;;;;;;;45.42;20.23;;;;;;;0.60;80.89;101462.97;5036789;28;20021;-55
2021/12/07 08:11:11;;;;;;;43.67;19.55;;;;;;;0.62;80.46;101458.34;5033072;28;20036;-51
2021/12/07 08:13:37;;;;;;;46.63;19.40;;;;;;;0.57;80.77;101455.41;5036220;28;20036;-53
2021/12/07 08:16:02;;;;;;;46.90;19.90;;;;;;;0.55;80.58;101462.66;5036099;28;20032;-54
2021/12/07 08:18:28;;;;;;;43.22;19.27;;;;;;;0.56;80.70;101467.75;5035033;28;20020;-51
2021/12/07 08:20:54;;;;;;;40.95;18.95;;;;;;;0.53;80.60;101470.72;5039790;28;20024;-53
2021/12/07 08:23:20;;;;;;;44.80;20.65;;;;;;;0.57;80.55;101473.88;5037355;28;20107;-54
2021/12/07 08:25:47;;;;;;;40.22;18.27;;;;;;;0.60;80.50;101476.16;5031494;28;20110;-53
2021/12/07 08:28:14;;;;;;;47.60;19.65;;;;;;;0.63;80.34;101475.00;5037609;28;20483;-53
2021/12/07 08:30:43;;;;;;;41.70;19.05;;;;;;;0.63;80.12;101481.09;5034013;28;20505;-54
2021/12/07 08:33:10;;;;;;;38.22;19.15;;;;;;;0.66;80.21;101475.50;5030844;28;20395;-55
2021/12/07 08:35:36;;;;;;;40.20;18.35;;;;;;;0.67;79.75;101481.59;5036522;28;20024;-54
2021/12/07 08:38:02;;;;;;;39.25;18.50;;;;;;;0.71;79.93;101475.81;5032165;28;20549;-54
2021/12/07 08:40:30;;;;;;;42.83;20.02;;;;;;;0.71;79.69;101473.19;5033715;28;20044;-55
2021/12/07 08:42:56;;;;;;;44.75;20.05;;;;;;;0.70;79.49;101474.16;5033620;28;20034;-54
2021/12/07 08:45:24;;;;;;;44.92;18.98;;;;;;;0.74;79.47;101475.50;5033903;28;20052;-57
2021/12/07 08:47:50;;;;;;;41.80;19.33;;;;;;;0.73;79.67;101481.78;5032092;28;20462;-54
2021/12/07 08:50:19;;;;;;;39.60;18.60;;;;;;;0.71;79.20;101481.09;5031904;28;20087;-54
2021/12/07 08:52:46;;;;;;;47.20;20.05;;;;;;;0.68;79.29;101484.06;5040263;28;20127;-55
2021/12/07 09:00:29;;;;;;;39.97;18.80;;;;;;;0.59;79.26;101483.25;5031818;28;20045;-54
2021/12/07 09:02:55;;;;;;;42.38;18.00;;;;;;;0.55;79.37;101486.38;5034537;28;20029;-55
2021/12/07 09:05:20;;;;;;;45.65;20.13;;;;;;;0.55;79.43;101487.22;5030996;28;20051;-55
2021/12/07 09:07:47;;;;;;;40.80;18.02;;;;;;;0.55;79.23;101494.31;5031488;28;20641;-55
2021/12/07 09:10:13;;;;;;;41.78;18.25;;;;;;;0.55;79.41;101497.75;5032620;28;20025;-55
2021/12/07 09:12:39;;;;;;;39.50;16.98;;;;;;;0.53;79.21;101490.97;5030569;28;20060;-57
2021/12/07 09:15:06;;;;;;;43.40;18.33;;;;;;;0.50;79.36;101493.94;5035425;28;20118;-54
2021/12/07 09:17:31;;;;;;;38.70;16.90;;;;;;;0.48;79.20;101482.75;5031699;28;20484;-55
2021/12/07 09:19:57;;;;;;;41.10;18.92;;;;;;;0.51;79.11;101490.31;5035594;28;20036;-54
2021/12/07 09:22:22;;;;;;;40.50;17.83;;;;;;;0.53;79.13;101493.63;5035441;28;20025;-56
2021/12/07 09:24:48;;;;;;;37.65;16.83;;;;;;;0.49;78.89;101490.50;5038993;28;20032;-53
2021/12/07 09:27:14;;;;;;;47.25;19.00;;;;;;;0.50;78.97;101496.59;5034995;28;20039;-57
2021/12/07 09:29:39;;;;;;;43.05;17.40;;;;;;;0.50;78.79;101489.50;5032863;28;20051;-53
2021/12/07 09:32:05;;;;;;;42.72;17.48;;;;;;;0.49;78.78;101489.66;5035685;28;21079;-53
2021/12/07 09:34:31;;;;;;;39.25;18.25;;;;;;;0.50;78.70;101475.50;5037802;28;20474;-55
2021/12/07 09:36:56;;;;;;;38.40;17.35;;;;;;;0.53;78.66;101480.44;5037130;28;20068;-54
2021/12/07 09:39:22;;;;;;;43.80;17.40;;;;;;;0.54;78.68;101485.56;5035737;28;20555;-51
2021/12/07 09:41:48;;;;;;;41.13;17.23;;;;;;;0.53;78.23;101483.06;5036053;28;20040;-55
2021/12/07 09:44:14;;;;;;;39.28;17.92;;;;;;;0.44;78.27;101481.44;5033947;28;20378;-55
2021/12/07 09:46:41;;;;;;;43.92;18.25;;;;;;;0.48;78.46;101493.28;5032581;28;20029;-51
2021/12/07 09:49:08;;;;;;;37.85;17.17;;;;;;;0.51;78.17;101483.22;5034549;28;20360;-53
2021/12/07 09:51:35;;;;;;;38.80;17.10;;;;;;;0.50;78.13;101486.03;5035931;28;20033;-54
2021/12/07 09:54:01;;;;;;;39.88;17.83;;;;;;;0.50;78.08;101486.03;5038442;28;20030;-53
2021/12/07 09:56:28;;;;;;;45.42;18.35;;;;;;;0.50;78.15;101475.50;5034478;28;20044;-54
2021/12/07 09:58:55;;;;;;;40.63;18.23;;;;;;;0.49;78.03;101479.13;5034435;28;20032;-54
2021/12/07 10:01:24;;;;;;;42.65;17.02;;;;;;;0.51;77.99;101475.31;5040591;28;20086;-55
2021/12/07 10:03:49;;;;;;;44.10;19.40;;;;;;;0.55;77.95;101476.66;5037177;28;20033;-55
2021/12/07 10:06:15;;;;;;;38.58;16.65;;;;;;;0.49;77.94;101473.84;5039641;28;20032;-56
2021/12/07 10:08:41;;;;;;;35.20;16.88;;;;;;;0.47;77.86;101474.00;5043931;28;20466;-53
2021/12/07 10:11:10;;;;;;;35.65;16.30;;;;;;;0.49;77.98;101484.38;5038308;28;20040;-54
2021/12/07 10:13:38;;;;;;;41.13;17.42;;;;;;;0.49;77.74;101479.94;5043854;28;20410;-54
2021/12/07 10:16:06;;;;;;;42.60;17.90;;;;;;;0.52;77.67;101479.59;5040224;28;20032;-54
2021/12/07 10:18:36;;;;;;;37.15;17.65;;;;;;;0.53;77.66;101480.44;5054439;28;20116;-54
2021/12/07 10:21:13;;;;;;;40.35;17.85;;;;;;;0.51;77.79;101477.97;5038991;28;20037;-56
2021/12/07 10:23:49;;;;;;;40.85;17.55;;;;;;;0.53;77.61;101472.53;5037657;28;20218;-54
2021/12/07 10:26:21;;;;;;;36.90;16.10;;;;;;;0.56;77.66;101472.22;5040014;28;20036;-57
2021/12/07 10:28:51;;;;;;;43.70;17.42;;;;;;;0.58;77.52;101478.16;5045937;28;20425;-54
2021/12/07 10:31:24;;;;;;;41.40;17.77;;;;;;;0.54;77.34;101476.84;5040369;28;20032;-56
2021/12/07 10:34:05;;;;;;;42.65;17.45;;;;;;;0.60;77.51;101478.81;5043401;28;20037;-55
2021/12/07 10:36:30;;;;;;;42.75;20.13;;;;;;;0.63;77.59;101477.66;5041162;28;20083;-53
2021/12/07 10:39:16;;;;;;;44.35;18.52;;;;;;;0.65;77.52;101473.03;5040324;28;20037;-55
2021/12/07 10:41:46;;;;;;;40.20;16.80;;;;;;;0.70;77.45;101476.81;5040547;28;20029;-55
2021/12/07 10:44:24;;;;;;;43.13;17.20;;;;;;;0.71;77.40;101470.53;5039173;28;20199;-52
2021/12/07 10:46:58;;;;;;;39.80;17.50;;;;;;;0.76;77.38;101465.59;5041681;28;20362;-54
2021/12/07 10:49:33;;;;;;;40.30;17.05;;;;;;;0.76;77.07;101464.78;5034919;28;20033;-56
2021/12/07 10:52:12;;;;;;;40.67;17.75;;;;;;;0.73;77.12;101465.13;5041542;28;20025;-55
2021/12/07 10:54:55;;;;;;;46.35;18.40;;;;;;;0.69;77.26;101461.97;5037254;28;20033;-54
2021/12/07 10:57:25;;;;;;;43.22;17.27;;;;;;;0.72;76.85;101466.09;5035041;28;20025;-55
2021/12/07 10:59:53;;;;;;;41.30;17.33;;;;;;;0.68;77.09;101462.97;5035026;28;20111;-52
2021/12/07 11:02:19;;;;;;;37.08;17.85;;;;;;;0.71;76.97;101462.63;5036516;28;20083;-56
2021/12/07 11:04:46;;;;;;;43.92;19.08;;;;;;;0.71;76.84;101457.34;5037940;28;20452;-54
2021/12/07 11:07:18;;;;;;;45.78;19.00;;;;;;;0.65;76.91;101462.47;5036165;28;20487;-51
2021/12/07 11:10:08;;;;;;;45.17;18.85;;;;;;;0.56;77.28;101453.75;5033886;28;20029;-53
2021/12/07 11:12:47;;;;;;;46.97;20.63;;;;;;;0.59;77.33;101453.41;5034616;28;20522;-54
2021/12/07 11:15:18;;;;;;;50.60;20.65;;;;;;;0.64;77.24;101456.38;5035015;28;20063;-51
2021/12/07 11:17:44;;;;;;;48.80;20.77;;;;;;;0.63;77.30;101454.72;5036654;28;20039;-53
2021/12/07 11:20:10;;;;;;;40.75;20.17;;;;;;;0.65;77.32;101450.13;5038851;28;20395;-55
2021/12/07 11:22:40;;;;;;;48.95;20.90;;;;;;;0.65;77.34;101450.13;5040413;28;20048;-55
2021/12/07 11:25:07;;;;;;;46.80;18.50;;;;;;;0.63;77.25;101441.53;5033849;28;20060;-53
2021/12/07 11:30:27;;;;;;;51.03;18.98;;;;;;;0.60;77.45;101428.69;5034755;28;20509;-52
2021/12/07 11:32:56;;;;;;;52.35;20.73;;;;;;;0.61;77.35;101440.88;5035968;28;20313;-55
2021/12/07 11:35:29;;;;;;;45.42;18.02;;;;;;;0.61;77.52;101438.25;5041200;28;20029;-53
2021/12/07 11:37:57;;;;;;;53.10;20.67;;;;;;;0.66;77.49;101435.13;5032053;28;20526;-54
2021/12/07 11:40:30;;;;;;;38.70;17.92;;;;;;;0.62;77.38;101432.00;5038812;28;20111;-55
2021/12/07 11:42:56;;;;;;;50.20;19.42;;;;;;;0.67;77.09;101431.47;5031937;28;20025;-54
2021/12/07 11:45:27;;;;;;;47.72;19.63;;;;;;;0.66;77.42;101430.66;5036747;28;20024;-55
2021/12/07 11:48:03;;;;;;;50.42;18.33;;;;;;;0.70;77.10;101429.34;5032652;28;20029;-53
2021/12/07 11:50:43;;;;;;;47.30;19.98;;;;;;;0.73;77.00;101436.09;5042127;28;20029;-52
2021/12/07 11:53:14;;;;;;;47.15;19.13;;;;;;;0.73;76.94;101418.47;5038210;28;20026;-55
2021/12/07 11:55:44;;;;;;;39.70;17.23;;;;;;;0.74;76.88;101425.38;5036722;28;20030;-55
2021/12/07 11:58:12;;;;;;;44.88;18.90;;;;;;;0.75;76.83;101432.31;5035794;28;20382;-52
2021/12/07 12:00:44;;;;;;;40.70;16.58;;;;;;;0.72;76.90;101434.44;5040753;28;20030;-57
2021/12/07 12:03:13;;;;;;;41.45;18.92;;;;;;;0.73;76.68;101422.94;5038949;28;20025;-52
2021/12/07 12:05:41;;;;;;;49.28;19.80;;;;;;;0.73;76.79;101428.19;5032192;28;20115;-54
2021/12/07 12:08:09;;;;;;;43.00;18.30;;;;;;;0.73;76.51;101417.66;5038278;28;20095;-52
2021/12/07 12:10:40;;;;;;;49.58;20.38;;;;;;;0.67;76.82;101419.13;5031949;28;20033;-53
2021/12/07 12:13:15;;;;;;;44.28;18.40;;;;;;;0.64;76.94;101426.53;5031060;28;20055;-55
2021/12/07 12:15:46;;;;;;;44.67;19.00;;;;;;;0.62;76.70;101423.25;5035975;28;20393;-52
2021/12/07 12:18:30;;;;;;;44.75;19.67;;;;;;;0.60;76.80;101428.69;5032999;28;20037;-55
2021/12/07 12:21:02;;;;;;;42.72;18.52;;;;;;;0.61;77.00;101419.78;5037055;28;20052;-57
2021/12/07 12:23:33;;;;;;;42.70;18.83;;;;;;;0.58;77.10;101415.69;5037900;28;20029;-51
2021/12/07 12:26:05;;;;;;;45.08;17.67;;;;;;;0.57;76.91;101406.13;5038076;28;20044;-53
2021/12/07 12:28:47;;;;;;;46.00;18.75;;;;;;;0.57;77.06;101410.56;5036849;28;20020;-52
2021/12/07 12:31:13;;;;;;;48.65;19.02;;;;;;;0.55;77.24;101413.38;5036495;28;20029;-54
2021/12/07 12:33:45;;;;;;;57.38;19.05;;;;;;;0.55;77.17;101402.84;5035532;28;20037;-56
2021/12/07 12:36:11;;;;;;;49.45;19.55;;;;;;;0.59;77.22;101405.97;5037652;28;20035;-55
2021/12/07 12:38:36;;;;;;;45.75;18.77;;;;;;;0.60;77.33;101407.59;5035593;28;20033;-56
2021/12/07 12:41:07;;;;;;;42.20;18.25;;;;;;;0.62;77.13;101397.72;5037513;28;20029;-54
2021/12/07 12:43:40;;;;;;;45.40;19.52;;;;;;;0.61;77.18;101409.25;5033171;28;20403;-55
2021/12/07 12:46:06;;;;;;;44.65;18.00;;;;;;;0.60;77.15;101403.16;5037285;28;20028;-55
2021/12/07 12:48:32;;;;;;;42.70;18.40;;;;;;;0.60;77.02;101397.88;5038836;28;20387;-55
2021/12/07 12:50:58;;;;;;;44.75;18.55;;;;;;;0.59;77.04;101401.50;5035653;28;20029;-55
2021/12/07 12:53:30;;;;;;;40.55;17.58;;;;;;;0.57;76.99;101405.31;5048269;28;20063;-55
2021/12/07 12:56:00;;;;;;;44.00;18.95;;;;;;;0.53;77.22;101406.59;5035748;28;20024;-55
2021/12/07 12:58:28;;;;;;;49.25;18.42;;;;;;;0.55;77.33;101409.91;5038737;28;20378;-53